Time;durP1;ratioP1;P1;durP2;ratioP2;P2;SDS_P1;SDS_P2;PMS_P1;PMS_P2;Temp;Humidity;BMP_temperature;BMP_pressure;BME280_temperature;BME280_humidity;BME280_pressure;Samples;Min_cycle;Max_cycle;Signal;HPM_P1;HPM_P2
2022/01/10 00:00:54;;;;;;;21.45;8.40;;;;;;;;;;4981025;28;20141;-83
2022/01/10 00:03:22;;;;;;;17.20;8.82;;;;;;;;;;4979008;28;20027;-81
2022/01/10 00:05:51;;;;;;;20.65;8.65;;;;;;;;;;4980524;28;20027;-82
2022/01/10 00:08:18;;;;;;;20.73;11.18;;;;;;;;;;4980259;28;20030;-83
2022/01/10 00:10:51;;;;;;;35.15;11.27;;;;;;;;;;4981422;28;20031;-83
2022/01/10 00:13:17;;;;;;;41.67;10.38;;;;;;;;;;4984973;28;20429;-84
2022/01/10 00:15:47;;;;;;;27.08;9.15;;;;;;;;;;4999695;28;20085;-83
2022/01/10 00:18:13;;;;;;;20.17;7.63;;;;;;;;;;4999679;28;20039;-82
2022/01/10 00:20:41;;;;;;;28.50;9.13;;;;;;;;;;4987724;28;20027;-84
2022/01/10 00:23:09;;;;;;;25.23;8.70;;;;;;;;;;4979591;28;20094;-84
2022/01/10 00:25:44;;;;;;;23.40;8.57;;;;;;;;;;4987785;28;20027;-82
2022/01/10 00:28:18;;;;;;;48.22;9.32;;;;;;;;;;4988919;28;20106;-82
2022/01/10 00:30:53;;;;;;;34.70;9.25;;;;;;;;;;4992031;28;20120;-84
2022/01/10 00:33:41;;;;;;;28.73;9.35;;;;;;;;;;4982093;28;20023;-83
2022/01/10 00:36:16;;;;;;;28.23;8.35;;;;;;;;;;4984299;28;20057;-81
2022/01/10 00:39:25;;;;;;;40.83;9.60;;;;;;;;;;4986400;28;20058;-83
2022/01/10 00:42:07;;;;;;;31.17;9.13;;;;;;;;;;4969350;28;20063;-83
2022/01/10 00:44:39;;;;;;;32.88;9.60;;;;;;;;;;4986769;28;20034;-82
2022/01/10 00:47:05;;;;;;;42.15;9.88;;;;;;;;;;4980622;28;20022;-83
2022/01/10 00:49:34;;;;;;;42.10;9.98;;;;;;;;;;4991098;28;20034;-82
2022/01/10 00:52:00;;;;;;;50.47;8.00;;;;;;;;;;4979247;28;20039;-83
2022/01/10 00:54:27;;;;;;;27.50;8.82;;;;;;;;;;4978932;28;20521;-82
2022/01/10 00:56:53;;;;;;;51.75;10.00;;;;;;;;;;4979468;28;20015;-82
2022/01/10 00:59:21;;;;;;;44.88;8.98;;;;;;;;;;4980249;28;20545;-83
2022/01/10 01:01:57;;;;;;;63.88;9.25;;;;;;;;;;4981713;28;20023;-83
2022/01/10 01:04:30;;;;;;;22.17;7.00;;;;;;;;;;4998603;28;20054;-83
2022/01/10 01:06:56;;;;;;;27.25;7.95;;;;;;;;;;4989673;23;20435;-85
2022/01/10 01:09:27;;;;;;;40.88;8.93;;;;;;;;;;4977777;28;20045;-85
2022/01/10 01:12:16;;;;;;;19.45;8.52;;;;;;;;;;4977102;28;20058;-83
2022/01/10 01:17:12;;;;;;;35.72;9.57;;;;;;;;;;4963054;28;20035;-84
2022/01/10 01:25:22;;;;;;;17.73;6.55;;;;;;;;;;4962769;28;20085;-82
2022/01/10 01:27:51;;;;;;;49.47;8.30;;;;;;;;;;4962025;29;20034;-82
2022/01/10 01:30:17;;;;;;;20.52;7.40;;;;;;;;;;4965799;28;20082;-85
2022/01/10 01:32:43;;;;;;;36.97;8.50;;;;;;;;;;4962372;29;20404;-83
2022/01/10 01:35:10;;;;;;;34.92;7.95;;;;;;;;;;4964546;28;20054;-84
2022/01/10 01:37:37;;;;;;;27.65;8.32;;;;;;;;;;4963520;29;20035;-82
2022/01/10 01:40:05;;;;;;;32.90;8.82;;;;;;;;;;4961513;28;20026;-82
2022/01/10 01:42:40;;;;;;;23.17;8.20;;;;;;;;;;4962141;28;20027;-83
2022/01/10 01:45:08;;;;;;;35.50;8.48;;;;;;;;;;4959168;28;20026;-82
2022/01/10 01:47:34;;;;;;;33.60;8.80;;;;;;;;;;4961972;28;20019;-83
2022/01/10 01:50:00;;;;;;;19.48;8.68;;;;;;;;;;4961379;29;20031;-83
2022/01/10 01:52:27;;;;;;;16.77;7.30;;;;;;;;;;4960709;29;20027;-84
2022/01/10 01:54:53;;;;;;;24.60;8.15;;;;;;;;;;4967417;28;20501;-82
2022/01/10 01:57:19;;;;;;;16.58;7.43;;;;;;;;;;4980429;28;20027;-85
2022/01/10 01:59:45;;;;;;;33.95;8.48;;;;;;;;;;4964540;28;20035;-84
2022/01/10 02:02:11;;;;;;;20.30;8.05;;;;;;;;;;4960207;29;20476;-84
2022/01/10 02:04:38;;;;;;;18.52;8.10;;;;;;;;;;4962704;28;20481;-83
2022/01/10 02:07:04;;;;;;;19.30;8.23;;;;;;;;;;4962413;28;20039;-83
2022/01/10 02:09:30;;;;;;;17.48;7.93;;;;;;;;;;4961599;29;20046;-84
2022/01/10 02:11:57;;;;;;;19.65;9.07;;;;;;;;;;4962375;28;20051;-84
2022/01/10 02:14:23;;;;;;;16.90;7.55;;;;;;;;;;4962125;29;20035;-85
2022/01/10 02:16:55;;;;;;;24.63;8.52;;;;;;;;;;4961841;28;20050;-83
2022/01/10 02:19:21;;;;;;;17.67;7.85;;;;;;;;;;4974970;28;20059;-85
2022/01/10 02:21:47;;;;;;;17.98;8.52;;;;;;;;;;4971082;29;20472;-84
2022/01/10 02:24:13;;;;;;;17.73;8.25;;;;;;;;;;4963634;29;20031;-84
2022/01/10 02:26:39;;;;;;;15.65;7.20;;;;;;;;;;4961217;28;20403;-84
2022/01/10 02:29:06;;;;;;;20.08;6.75;;;;;;;;;;4961154;28;20055;-85
2022/01/10 02:31:36;;;;;;;16.77;6.90;;;;;;;;;;4962451;29;20038;-85
2022/01/10 02:34:02;;;;;;;13.27;6.57;;;;;;;;;;4963062;29;20019;-85
2022/01/10 02:36:28;;;;;;;15.48;6.35;;;;;;;;;;4960345;28;20121;-83
2022/01/10 02:38:56;;;;;;;17.52;7.07;;;;;;;;;;4961904;29;20035;-84
2022/01/10 02:41:24;;;;;;;27.63;8.30;;;;;;;;;;4962428;28;20494;-84
2022/01/10 02:43:50;;;;;;;19.33;7.30;;;;;;;;;;4962104;29;20098;-83
2022/01/10 02:46:16;;;;;;;17.17;7.15;;;;;;;;;;4959344;28;20019;-84
2022/01/10 02:48:42;;;;;;;14.35;6.75;;;;;;;;;;4961293;29;20034;-84
2022/01/10 02:51:08;;;;;;;15.30;7.75;;;;;;;;;;4961780;29;20062;-83
2022/01/10 02:53:34;;;;;;;14.65;6.55;;;;;;;;;;4961076;29;20039;-82
2022/01/10 02:56:00;;;;;;;16.48;7.15;;;;;;;;;;4959818;28;20487;-81
2022/01/10 02:58:26;;;;;;;15.10;7.47;;;;;;;;;;4960728;28;20035;-83
2022/01/10 03:00:52;;;;;;;14.20;6.95;;;;;;;;;;4960544;29;20050;-82
2022/01/10 03:03:18;;;;;;;14.48;7.35;;;;;;;;;;4963117;29;20396;-84
2022/01/10 03:05:44;;;;;;;13.73;6.85;;;;;;;;;;4961938;28;20019;-82
2022/01/10 03:08:10;;;;;;;13.55;6.35;;;;;;;;;;4959054;29;20023;-84
2022/01/10 03:10:36;;;;;;;14.00;6.53;;;;;;;;;;4960888;29;20369;-85
2022/01/10 03:13:02;;;;;;;9.90;5.65;;;;;;;;;;4959852;29;20031;-84
2022/01/10 03:15:29;;;;;;;13.05;5.88;;;;;;;;;;4958442;28;20119;-84
2022/01/10 03:17:55;;;;;;;11.60;6.25;;;;;;;;;;4961175;29;20081;-84
2022/01/10 03:20:23;;;;;;;16.73;6.63;;;;;;;;;;4961339;29;20042;-84
2022/01/10 03:22:49;;;;;;;15.55;7.20;;;;;;;;;;4961263;28;20023;-82
2022/01/10 03:25:15;;;;;;;12.05;6.68;;;;;;;;;;4960424;28;20432;-84
2022/01/10 03:27:41;;;;;;;12.35;5.75;;;;;;;;;;4958407;29;20047;-83
2022/01/10 03:30:07;;;;;;;11.68;5.35;;;;;;;;;;4958587;29;20058;-83
2022/01/10 03:32:33;;;;;;;12.15;6.35;;;;;;;;;;4958885;29;20033;-85
2022/01/10 03:34:59;;;;;;;11.85;5.88;;;;;;;;;;4958679;28;20406;-85
2022/01/10 03:37:26;;;;;;;13.32;6.50;;;;;;;;;;4960487;29;20035;-85
2022/01/10 03:39:52;;;;;;;10.75;5.93;;;;;;;;;;4960201;29;20067;-84
2022/01/10 03:42:18;;;;;;;10.60;6.35;;;;;;;;;;4960391;29;20019;-84
2022/01/10 03:44:44;;;;;;;12.68;6.30;;;;;;;;;;4960494;29;20083;-83
2022/01/10 03:47:10;;;;;;;17.48;8.23;;;;;;;;;;4958507;28;20455;-83
2022/01/10 03:49:37;;;;;;;19.65;7.35;;;;;;;;;;4958804;29;20030;-84
2022/01/10 03:52:03;;;;;;;18.75;8.80;;;;;;;;;;4959153;29;20031;-85
2022/01/10 03:54:29;;;;;;;14.95;7.95;;;;;;;;;;4960501;29;20083;-85
2022/01/10 03:56:55;;;;;;;18.92;7.70;;;;;;;;;;4958534;28;20069;-83
2022/01/10 03:59:21;;;;;;;19.05;7.55;;;;;;;;;;4960698;29;20039;-83
2022/01/10 04:01:50;;;;;;;20.30;8.77;;;;;;;;;;4960673;29;20070;-82
2022/01/10 04:04:17;;;;;;;18.63;8.15;;;;;;;;;;4960546;28;20480;-85
2022/01/10 04:06:43;;;;;;;24.38;7.90;;;;;;;;;;4960018;28;20031;-84
2022/01/10 04:09:09;;;;;;;21.92;8.02;;;;;;;;;;4959700;29;20027;-84
2022/01/10 04:11:35;;;;;;;22.58;9.05;;;;;;;;;;4962718;28;20030;-83
2022/01/10 04:14:01;;;;;;;21.42;8.48;;;;;;;;;;4962975;29;20034;-84
2022/01/10 04:16:27;;;;;;;30.45;7.65;;;;;;;;;;4964091;28;20102;-84
2022/01/10 04:18:53;;;;;;;17.73;7.65;;;;;;;;;;4977831;29;20031;-82
2022/01/10 04:21:20;;;;;;;17.90;8.07;;;;;;;;;;4980816;29;20023;-83
2022/01/10 04:23:46;;;;;;;104.72;9.07;;;;;;;;;;4975094;29;20035;-84
2022/01/10 04:26:12;;;;;;;57.17;7.50;;;;;;;;;;4964243;28;20051;-84
2022/01/10 04:28:38;;;;;;;35.30;6.57;;;;;;;;;;4963459;29;20042;-82
2022/01/10 04:31:04;;;;;;;50.47;8.55;;;;;;;;;;4965135;29;20034;-83
2022/01/10 04:33:30;;;;;;;83.13;8.90;;;;;;;;;;4964770;28;20027;-86
2022/01/10 04:35:57;;;;;;;27.30;7.50;;;;;;;;;;4964564;28;20038;-85
2022/01/10 04:38:23;;;;;;;37.85;8.40;;;;;;;;;;4964263;29;20086;-85
2022/01/10 04:40:50;;;;;;;34.45;7.28;;;;;;;;;;4965176;29;20495;-82
2022/01/10 04:43:16;;;;;;;52.45;8.85;;;;;;;;;;4963463;29;20030;-83
2022/01/10 04:45:42;;;;;;;42.25;8.05;;;;;;;;;;4962692;28;20027;-83
2022/01/10 04:48:09;;;;;;;67.35;9.30;;;;;;;;;;4964748;28;20073;-83
2022/01/10 04:53:19;;;;;;;26.33;7.60;;;;;;;;;;4965047;29;20034;-83
2022/01/10 04:55:45;;;;;;;25.65;9.10;;;;;;;;;;4964063;28;20039;-83
2022/01/10 04:58:11;;;;;;;18.20;8.27;;;;;;;;;;4979592;29;20023;-80
2022/01/10 05:00:37;;;;;;;29.10;7.55;;;;;;;;;;4981542;28;20039;-83
2022/01/10 05:03:03;;;;;;;22.35;9.52;;;;;;;;;;4981279;28;20042;-83
2022/01/10 05:05:29;;;;;;;14.73;6.93;;;;;;;;;;4981195;28;20043;-81
2022/01/10 05:07:55;;;;;;;31.02;7.75;;;;;;;;;;4973955;29;20031;-84
2022/01/10 05:10:21;;;;;;;14.45;7.10;;;;;;;;;;4964605;29;20045;-82
2022/01/10 05:12:47;;;;;;;20.02;6.97;;;;;;;;;;4965346;29;20086;-84
2022/01/10 05:15:13;;;;;;;19.77;8.02;;;;;;;;;;4963608;28;20114;-84
2022/01/10 05:17:39;;;;;;;39.88;9.63;;;;;;;;;;4964249;29;20027;-83
2022/01/10 05:20:06;;;;;;;34.53;8.32;;;;;;;;;;4964786;29;20031;-83
2022/01/10 05:22:32;;;;;;;48.15;9.85;;;;;;;;;;4962637;28;20027;-83
2022/01/10 05:24:58;;;;;;;48.58;9.35;;;;;;;;;;4965210;28;20024;-85
2022/01/10 05:27:24;;;;;;;40.10;10.38;;;;;;;;;;4964144;29;20027;-84
2022/01/10 05:29:50;;;;;;;34.20;9.88;;;;;;;;;;4965027;29;20424;-83
2022/01/10 05:32:16;;;;;;;45.40;9.10;;;;;;;;;;4965823;29;20051;-84
2022/01/10 05:34:42;;;;;;;23.08;8.70;;;;;;;;;;4977850;28;20031;-84
2022/01/10 05:37:08;;;;;;;22.15;9.30;;;;;;;;;;4981304;28;20011;-87
2022/01/10 05:39:34;;;;;;;26.02;8.80;;;;;;;;;;4981753;28;20042;-84
2022/01/10 05:42:00;;;;;;;49.53;10.23;;;;;;;;;;4982305;28;20011;-86
2022/01/10 05:44:27;;;;;;;75.10;10.82;;;;;;;;;;4981678;28;20023;-84
2022/01/10 05:46:53;;;;;;;31.63;9.48;;;;;;;;;;4981207;28;20023;-84
2022/01/10 05:49:25;;;;;;;48.67;9.45;;;;;;;;;;4982460;28;20050;-83
2022/01/10 05:51:51;;;;;;;59.67;10.05;;;;;;;;;;4981897;28;20017;-85
2022/01/10 05:54:17;;;;;;;38.70;9.88;;;;;;;;;;4981669;28;20026;-83
2022/01/10 05:56:43;;;;;;;32.80;9.40;;;;;;;;;;4981144;28;20015;-86
2022/01/10 05:59:09;;;;;;;44.88;10.75;;;;;;;;;;4981952;28;20046;-85
2022/01/10 06:01:35;;;;;;;32.25;10.57;;;;;;;;;;4981527;28;20050;-86
2022/01/10 06:04:01;;;;;;;22.58;9.98;;;;;;;;;;4981531;28;20016;-86
2022/01/10 06:06:27;;;;;;;22.02;9.70;;;;;;;;;;4980163;28;20033;-86
2022/01/10 06:08:53;;;;;;;31.33;10.50;;;;;;;;;;4980184;28;20039;-86
2022/01/10 06:11:19;;;;;;;78.63;10.80;;;;;;;;;;4981233;28;20017;-86
2022/01/10 06:13:45;;;;;;;35.47;10.82;;;;;;;;;;4981026;28;20054;-84
2022/01/10 06:16:13;;;;;;;59.58;10.73;;;;;;;;;;4980485;28;20059;-83
2022/01/10 06:18:39;;;;;;;27.67;9.40;;;;;;;;;;4980786;28;20034;-85
2022/01/10 06:21:05;;;;;;;28.98;10.00;;;;;;;;;;4979211;28;20035;-84
2022/01/10 06:23:31;;;;;;;33.97;9.95;;;;;;;;;;4974355;28;20069;-84
2022/01/10 06:25:57;;;;;;;22.42;9.68;;;;;;;;;;4972852;28;20020;-84
2022/01/10 06:28:23;;;;;;;19.85;9.18;;;;;;;;;;4971714;29;20023;-85
2022/01/10 06:30:49;;;;;;;27.02;9.55;;;;;;;;;;4973013;29;20019;-84
2022/01/10 06:33:15;;;;;;;25.55;10.00;;;;;;;;;;4975036;28;20042;-86
2022/01/10 06:35:41;;;;;;;29.13;9.43;;;;;;;;;;4980277;28;20043;-86
2022/01/10 06:38:07;;;;;;;27.83;10.73;;;;;;;;;;4979516;28;20012;-86
2022/01/10 06:40:33;;;;;;;30.10;10.43;;;;;;;;;;4979547;28;20059;-87
2022/01/10 06:42:59;;;;;;;35.97;10.00;;;;;;;;;;4979839;28;20087;-85
2022/01/10 06:45:25;;;;;;;56.50;10.90;;;;;;;;;;4979944;28;20023;-85
2022/01/10 06:47:51;;;;;;;24.90;9.73;;;;;;;;;;4979629;28;20012;-85
2022/01/10 06:50:17;;;;;;;34.33;11.70;;;;;;;;;;4979320;28;20387;-84
2022/01/10 06:52:44;;;;;;;36.47;10.32;;;;;;;;;;4979138;28;20031;-86
2022/01/10 06:55:10;;;;;;;42.95;9.43;;;;;;;;;;4979736;28;20031;-84
2022/01/10 06:57:36;;;;;;;26.42;8.57;;;;;;;;;;4978698;28;20034;-87
2022/01/10 07:00:04;;;;;;;26.63;7.13;;;;;;;;;;4968244;28;20031;-84
2022/01/10 07:02:30;;;;;;;15.43;7.47;;;;;;;;;;4968306;29;20028;-85
2022/01/10 07:04:56;;;;;;;110.88;10.00;;;;;;;;;;4968173;28;20037;-85
2022/01/10 07:07:22;;;;;;;35.05;8.63;;;;;;;;;;4991009;23;20078;-82
2022/01/10 07:09:48;;;;;;;54.35;8.10;;;;;;;;;;4961297;28;20027;-82
2022/01/10 07:12:15;;;;;;;81.35;11.15;;;;;;;;;;4956634;29;20106;-83
2022/01/10 07:14:41;;;;;;;50.60;9.85;;;;;;;;;;4955800;29;20028;-82
2022/01/10 07:17:07;;;;;;;66.75;9.80;;;;;;;;;;4955193;29;20035;-81
2022/01/10 07:19:33;;;;;;;53.67;10.90;;;;;;;;;;4956543;29;20039;-82
2022/01/10 07:21:59;;;;;;;55.38;11.32;;;;;;;;;;4956235;29;20487;-83
2022/01/10 07:24:25;;;;;;;25.10;9.00;;;;;;;;;;4970434;28;20479;-81
2022/01/10 07:26:51;;;;;;;22.65;10.57;;;;;;;;;;4975862;28;20520;-83
2022/01/10 07:29:17;;;;;;;21.67;10.77;;;;;;;;;;4976925;28;20027;-82
2022/01/10 07:31:44;;;;;;;27.42;11.65;;;;;;;;;;4976849;28;20037;-83
2022/01/10 07:34:12;;;;;;;29.20;12.75;;;;;;;;;;4978522;28;20058;-83
2022/01/10 07:36:38;;;;;;;39.75;12.75;;;;;;;;;;4983248;28;20034;-83
2022/01/10 07:39:05;;;;;;;37.97;12.52;;;;;;;;;;4992259;28;20034;-83
2022/01/10 07:41:31;;;;;;;60.95;15.00;;;;;;;;;;4979749;28;20120;-83
2022/01/10 07:43:59;;;;;;;38.47;12.80;;;;;;;;;;4961796;29;20130;-82
2022/01/10 07:46:26;;;;;;;34.90;13.02;;;;;;;;;;4956971;28;20492;-82
2022/01/10 07:48:54;;;;;;;32.22;13.05;;;;;;;;;;4958126;29;20452;-82
2022/01/10 07:51:20;;;;;;;30.33;13.07;;;;;;;;;;4957618;28;20118;-82
2022/01/10 07:53:46;;;;;;;31.52;12.02;;;;;;;;;;4958956;29;20031;-83
2022/01/10 07:56:12;;;;;;;30.05;12.63;;;;;;;;;;4955739;29;20034;-82
2022/01/10 07:58:38;;;;;;;48.08;16.85;;;;;;;;;;4957941;29;20373;-81
2022/01/10 08:01:04;;;;;;;36.40;15.02;;;;;;;;;;4957178;29;20020;-82
2022/01/10 08:03:30;;;;;;;52.97;16.67;;;;;;;;;;4958504;29;20031;-82
2022/01/10 08:05:56;;;;;;;43.00;14.45;;;;;;;;;;4956167;29;20106;-82
2022/01/10 08:08:22;;;;;;;34.08;13.10;;;;;;;;;;4956867;28;20559;-84
2022/01/10 08:14:14;;;;;;;;;;;;;;;;;;;;;
2022/01/10 08:16:54;;;;;;;29.80;12.43;;;;;;;;;;4969032;29;20054;-82
2022/01/10 08:19:26;;;;;;;27.98;12.15;;;;;;;;;;4960349;28;20071;-82
2022/01/10 08:21:56;;;;;;;30.58;12.65;;;;;;;;;;4960819;28;20091;-82
2022/01/10 08:24:40;;;;;;;29.33;12.25;;;;;;;;;;4960166;28;20031;-82
2022/01/10 08:27:06;;;;;;;29.58;11.50;;;;;;;;;;4959239;28;20182;-82
2022/01/10 08:29:37;;;;;;;29.13;10.95;;;;;;;;;;4957354;28;20135;-82
2022/01/10 08:32:03;;;;;;;29.73;13.18;;;;;;;;;;4956541;28;20057;-81
2022/01/10 08:34:29;;;;;;;26.63;12.23;;;;;;;;;;4955584;29;20058;-82
2022/01/10 08:36:58;;;;;;;26.30;12.50;;;;;;;;;;4956937;28;20117;-82
2022/01/10 08:39:36;;;;;;;31.75;13.60;;;;;;;;;;4955823;29;20106;-82
2022/01/10 08:42:02;;;;;;;29.25;13.18;;;;;;;;;;4958305;28;20027;-82
2022/01/10 08:44:28;;;;;;;26.70;11.93;;;;;;;;;;4978009;28;20472;-82
2022/01/10 08:46:54;;;;;;;25.13;13.15;;;;;;;;;;4984103;28;20037;-82
2022/01/10 08:49:20;;;;;;;31.77;12.50;;;;;;;;;;4975204;28;20129;-82
2022/01/10 08:51:49;;;;;;;23.63;12.32;;;;;;;;;;4972524;28;20031;-82
2022/01/10 08:54:15;;;;;;;23.02;12.05;;;;;;;;;;4974936;28;20065;-82
2022/01/10 08:56:41;;;;;;;23.98;11.05;;;;;;;;;;4972792;28;20031;-81
2022/01/10 08:59:07;;;;;;;24.17;11.88;;;;;;;;;;4977233;28;20019;-81
2022/01/10 09:01:34;;;;;;;26.27;12.18;;;;;;;;;;4978329;28;20558;-81
2022/01/10 09:04:00;;;;;;;27.50;13.23;;;;;;;;;;4978770;28;20018;-82
2022/01/10 09:06:26;;;;;;;26.85;12.23;;;;;;;;;;4975782;28;20613;-81
2022/01/10 09:08:56;;;;;;;26.30;12.45;;;;;;;;;;4977927;28;20367;-82
2022/01/10 09:11:22;;;;;;;26.10;13.88;;;;;;;;;;4979067;28;20096;-82
2022/01/10 09:13:48;;;;;;;29.98;15.45;;;;;;;;;;4980500;28;20026;-82
2022/01/10 09:16:14;;;;;;;30.73;15.43;;;;;;;;;;4971438;28;20050;-81
2022/01/10 09:18:46;;;;;;;27.80;15.82;;;;;;;;;;4980674;28;20035;-80
2022/01/10 09:21:12;;;;;;;29.58;14.82;;;;;;;;;;4978257;28;20035;-81
2022/01/10 09:23:38;;;;;;;28.80;14.95;;;;;;;;;;4980155;28;20105;-82
2022/01/10 09:26:12;;;;;;;26.38;12.90;;;;;;;;;;4978064;28;20479;-82
2022/01/10 09:28:45;;;;;;;24.60;12.40;;;;;;;;;;4977978;28;20466;-82
2022/01/10 09:31:20;;;;;;;19.45;10.73;;;;;;;;;;4980254;28;20038;-83
2022/01/10 09:33:52;;;;;;;22.33;11.15;;;;;;;;;;4979076;28;20090;-83
2022/01/10 09:36:18;;;;;;;17.48;9.23;;;;;;;;;;4981235;28;20026;-84
2022/01/10 09:38:52;;;;;;;18.50;9.95;;;;;;;;;;4981846;28;20023;-82
2022/01/10 09:41:18;;;;;;;19.90;9.48;;;;;;;;;;4979003;28;20030;-81
2022/01/10 09:43:50;;;;;;;17.48;9.30;;;;;;;;;;4977716;28;20019;-83
2022/01/10 09:46:30;;;;;;;21.10;10.80;;;;;;;;;;4979801;28;20336;-82
2022/01/10 09:49:00;;;;;;;15.63;9.65;;;;;;;;;;4980132;28;20031;-82
2022/01/10 09:51:29;;;;;;;13.98;8.63;;;;;;;;;;4980538;28;20027;-82
2022/01/10 09:53:56;;;;;;;11.65;7.47;;;;;;;;;;4977675;28;20487;-83
2022/01/10 09:56:22;;;;;;;12.85;7.70;;;;;;;;;;4978256;28;20456;-82
2022/01/10 09:58:48;;;;;;;12.05;6.97;;;;;;;;;;4976827;28;20094;-82
2022/01/10 10:01:16;;;;;;;12.00;7.80;;;;;;;;;;4978511;28;20027;-82
2022/01/10 10:03:52;;;;;;;12.00;7.97;;;;;;;;;;4979233;28;20022;-82
2022/01/10 10:06:21;;;;;;;12.93;8.05;;;;;;;;;;4977936;28;20716;-82
2022/01/10 10:08:47;;;;;;;13.00;7.57;;;;;;;;;;4977810;28;20034;-83
2022/01/10 10:11:15;;;;;;;13.57;7.10;;;;;;;;;;4976265;28;20027;-82
2022/01/10 10:13:51;;;;;;;12.85;7.72;;;;;;;;;;4968619;28;20031;-82
2022/01/10 10:16:26;;;;;;;15.27;8.10;;;;;;;;;;4977189;28;20456;-82
2022/01/10 10:18:52;;;;;;;12.85;7.85;;;;;;;;;;4977053;28;20086;-83
2022/01/10 10:21:21;;;;;;;14.25;7.88;;;;;;;;;;4977260;28;20117;-82
2022/01/10 10:23:49;;;;;;;13.60;7.43;;;;;;;;;;4976719;28;20018;-83
2022/01/10 10:26:21;;;;;;;13.77;8.40;;;;;;;;;;4977292;28;20081;-81
2022/01/10 10:28:47;;;;;;;11.82;8.00;;;;;;;;;;4978956;28;20031;-83
2022/01/10 10:31:14;;;;;;;13.80;7.10;;;;;;;;;;4977981;28;20074;-83
2022/01/10 10:33:47;;;;;;;15.73;7.65;;;;;;;;;;4976477;28;20027;-83
2022/01/10 10:36:13;;;;;;;12.35;6.55;;;;;;;;;;4975745;28;20023;-82
2022/01/10 10:38:39;;;;;;;11.20;6.30;;;;;;;;;;4975163;28;20035;-83
2022/01/10 10:41:06;;;;;;;12.77;6.82;;;;;;;;;;4976607;28;20033;-83
2022/01/10 10:43:32;;;;;;;12.88;7.13;;;;;;;;;;4985275;28;20027;-84
2022/01/10 10:46:02;;;;;;;11.27;6.70;;;;;;;;;;4977240;28;20058;-83
2022/01/10 10:48:29;;;;;;;11.90;7.20;;;;;;;;;;4975141;28;20491;-83
2022/01/10 10:50:57;;;;;;;9.50;6.03;;;;;;;;;;4975604;28;20019;-84
2022/01/10 10:53:29;;;;;;;12.90;6.63;;;;;;;;;;4973341;28;20031;-84
2022/01/10 10:56:01;;;;;;;14.60;7.25;;;;;;;;;;4975605;28;20030;-84
2022/01/10 10:58:27;;;;;;;10.57;6.70;;;;;;;;;;4973912;28;20042;-84
2022/01/10 11:00:54;;;;;;;10.60;6.57;;;;;;;;;;4974814;28;20026;-84
2022/01/10 11:03:27;;;;;;;10.85;5.40;;;;;;;;;;4976344;28;20027;-84
2022/01/10 11:06:05;;;;;;;15.50;7.10;;;;;;;;;;4975120;28;20058;-84
2022/01/10 11:08:35;;;;;;;11.23;6.22;;;;;;;;;;4977047;28;20363;-84
2022/01/10 11:11:02;;;;;;;8.85;5.88;;;;;;;;;;4977997;28;20033;-84
2022/01/10 11:13:28;;;;;;;11.20;6.40;;;;;;;;;;4977017;28;20034;-84
2022/01/10 11:15:55;;;;;;;8.57;4.40;;;;;;;;;;4967504;28;20027;-83
2022/01/10 11:18:22;;;;;;;13.20;7.25;;;;;;;;;;4956815;29;20031;-84
2022/01/10 11:20:49;;;;;;;16.73;7.90;;;;;;;;;;4959172;28;20051;-84
2022/01/10 11:23:15;;;;;;;10.60;7.00;;;;;;;;;;4958076;29;20345;-84
2022/01/10 11:25:42;;;;;;;12.68;6.07;;;;;;;;;;4958210;29;20037;-84
2022/01/10 11:28:25;;;;;;;9.32;5.53;;;;;;;;;;4955698;29;20019;-84
2022/01/10 11:30:59;;;;;;;8.65;5.40;;;;;;;;;;4958908;29;20031;-84
2022/01/10 11:33:34;;;;;;;9.13;5.93;;;;;;;;;;4956294;29;20027;-84
2022/01/10 11:36:08;;;;;;;9.95;5.95;;;;;;;;;;4954786;29;20023;-84
2022/01/10 11:38:39;;;;;;;10.18;6.10;;;;;;;;;;4956303;29;20027;-83
2022/01/10 11:41:12;;;;;;;9.57;6.10;;;;;;;;;;4956074;29;20042;-83
2022/01/10 11:43:49;;;;;;;13.05;6.80;;;;;;;;;;4956082;29;20500;-83
2022/01/10 11:46:17;;;;;;;10.18;6.35;;;;;;;;;;4954755;29;20082;-84
2022/01/10 11:49:09;;;;;;;10.18;6.70;;;;;;;;;;4955971;29;20023;-83
2022/01/10 11:51:38;;;;;;;9.75;6.80;;;;;;;;;;4954946;29;20038;-83
2022/01/10 11:54:26;;;;;;;11.48;5.95;;;;;;;;;;4956077;29;20050;-83
2022/01/10 11:56:54;;;;;;;11.88;7.13;;;;;;;;;;4954068;29;20034;-83
2022/01/10 11:59:23;;;;;;;10.50;6.35;;;;;;;;;;4955086;29;20038;-82
2022/01/10 12:01:51;;;;;;;9.90;6.20;;;;;;;;;;4956486;28;20039;-83
2022/01/10 12:04:18;;;;;;;11.13;6.68;;;;;;;;;;4957186;29;20487;-83
2022/01/10 12:06:45;;;;;;;12.45;7.15;;;;;;;;;;4954748;29;20035;-82
2022/01/10 12:09:11;;;;;;;12.70;7.15;;;;;;;;;;4956103;29;20074;-82
2022/01/10 12:11:39;;;;;;;12.60;7.75;;;;;;;;;;4955616;29;20023;-83
2022/01/10 12:14:12;;;;;;;15.45;7.85;;;;;;;;;;4957722;28;20423;-82
2022/01/10 12:16:38;;;;;;;14.00;7.22;;;;;;;;;;4967821;28;20039;-83
2022/01/10 12:19:04;;;;;;;11.63;7.07;;;;;;;;;;4978300;28;20029;-82
2022/01/10 12:21:31;;;;;;;10.57;7.50;;;;;;;;;;4977138;28;20067;-82
2022/01/10 12:24:00;;;;;;;10.98;6.55;;;;;;;;;;4977351;28;20057;-80
2022/01/10 12:26:27;;;;;;;14.00;7.25;;;;;;;;;;4981320;28;20026;-81
2022/01/10 12:28:54;;;;;;;14.27;7.22;;;;;;;;;;4978346;28;20113;-82
2022/01/10 12:31:22;;;;;;;12.38;7.90;;;;;;;;;;4979802;28;20030;-82
2022/01/10 12:33:49;;;;;;;15.10;7.82;;;;;;;;;;4980524;28;20022;-84
2022/01/10 12:36:15;;;;;;;15.00;8.35;;;;;;;;;;4977505;28;20023;-83
2022/01/10 12:38:42;;;;;;;13.93;7.70;;;;;;;;;;4986207;28;20038;-83
2022/01/10 12:41:09;;;;;;;13.05;7.68;;;;;;;;;;4995838;28;20027;-83
2022/01/10 12:43:35;;;;;;;16.20;7.07;;;;;;;;;;4989154;28;20106;-83
2022/01/10 12:46:01;;;;;;;13.05;7.40;;;;;;;;;;4978798;28;20624;-83
2022/01/10 12:48:27;;;;;;;13.95;8.25;;;;;;;;;;4978181;28;20034;-82
2022/01/10 12:50:54;;;;;;;13.75;8.00;;;;;;;;;;4977952;28;20487;-82
2022/01/10 12:53:20;;;;;;;11.15;7.65;;;;;;;;;;4978346;28;20061;-83
2022/01/10 12:55:47;;;;;;;13.38;7.93;;;;;;;;;;4978486;28;20371;-83
2022/01/10 12:58:13;;;;;;;16.13;8.40;;;;;;;;;;4980179;28;20487;-82
2022/01/10 13:00:39;;;;;;;17.55;8.48;;;;;;;;;;4990880;28;20034;-82
2022/01/10 13:03:06;;;;;;;17.73;9.80;;;;;;;;;;4989774;28;20045;-81
2022/01/10 13:05:33;;;;;;;15.80;8.93;;;;;;;;;;4982498;28;20049;-82
2022/01/10 13:07:59;;;;;;;18.80;9.57;;;;;;;;;;4980760;28;20463;-82
2022/01/10 13:10:32;;;;;;;17.83;9.10;;;;;;;;;;4980652;28;20041;-82
2022/01/10 13:13:01;;;;;;;19.48;9.82;;;;;;;;;;4979252;28;20023;-83
2022/01/10 13:15:35;;;;;;;17.63;9.70;;;;;;;;;;4972408;28;20025;-83
2022/01/10 13:18:01;;;;;;;18.63;9.75;;;;;;;;;;4961994;28;20023;-83
2022/01/10 13:20:29;;;;;;;18.70;10.27;;;;;;;;;;4960338;29;20276;-83
2022/01/10 13:23:03;;;;;;;16.52;9.85;;;;;;;;;;4959549;29;20031;-83
2022/01/10 13:25:34;;;;;;;20.60;9.82;;;;;;;;;;4969572;29;20031;-83
2022/01/10 13:28:06;;;;;;;20.75;11.10;;;;;;;;;;4962009;29;20393;-83
2022/01/10 13:30:33;;;;;;;20.77;10.23;;;;;;;;;;4960863;28;20023;-83
2022/01/10 13:33:00;;;;;;;18.17;9.63;;;;;;;;;;4960292;29;20045;-83
2022/01/10 13:35:29;;;;;;;20.33;9.60;;;;;;;;;;4960332;29;20055;-83
2022/01/10 13:37:59;;;;;;;17.77;9.95;;;;;;;;;;4959844;29;20103;-83
2022/01/10 13:40:27;;;;;;;17.07;9.77;;;;;;;;;;4958426;29;20170;-83
2022/01/10 13:42:53;;;;;;;17.52;10.35;;;;;;;;;;4960313;28;20263;-83
2022/01/10 13:45:43;;;;;;;14.93;9.05;;;;;;;;;;4958525;29;20163;-84
2022/01/10 13:48:11;;;;;;;18.48;9.90;;;;;;;;;;4953390;29;20094;-83
2022/01/10 13:50:41;;;;;;;19.45;10.13;;;;;;;;;;4958313;29;20031;-83
2022/01/10 13:53:09;;;;;;;25.25;11.82;;;;;;;;;;4959353;29;20027;-83
2022/01/10 13:55:36;;;;;;;20.70;11.25;;;;;;;;;;4958333;29;20546;-83
2022/01/10 13:58:04;;;;;;;20.92;12.07;;;;;;;;;;4959970;28;20031;-83
2022/01/10 14:00:31;;;;;;;28.38;14.15;;;;;;;;;;4959805;28;20050;-83
2022/01/10 14:02:58;;;;;;;22.00;11.18;;;;;;;;;;4959427;28;20028;-83
2022/01/10 14:05:26;;;;;;;21.63;12.23;;;;;;;;;;4958946;29;20027;-83
2022/01/10 14:07:53;;;;;;;21.48;11.75;;;;;;;;;;4959553;29;20359;-83
2022/01/10 14:10:19;;;;;;;22.80;12.85;;;;;;;;;;4959335;29;20027;-83
2022/01/10 14:12:45;;;;;;;23.88;12.40;;;;;;;;;;4959492;29;20085;-83
2022/01/10 14:15:11;;;;;;;22.00;11.23;;;;;;;;;;4967701;28;20113;-84
2022/01/10 14:17:37;;;;;;;20.52;12.40;;;;;;;;;;4971709;28;20086;-83
2022/01/10 14:20:04;;;;;;;20.17;12.00;;;;;;;;;;4976409;28;20439;-83
2022/01/10 14:22:31;;;;;;;22.90;12.52;;;;;;;;;;4976656;28;20133;-83
2022/01/10 14:24:57;;;;;;;27.77;14.38;;;;;;;;;;4977739;28;20027;-83
2022/01/10 14:27:23;;;;;;;30.30;14.88;;;;;;;;;;4977075;28;20033;-82
2022/01/10 14:29:49;;;;;;;26.25;14.48;;;;;;;;;;4976829;28;20081;-83
2022/01/10 14:32:15;;;;;;;42.85;14.43;;;;;;;;;;4977714;28;20027;-83
2022/01/10 14:34:41;;;;;;;34.15;13.65;;;;;;;;;;4978370;28;20386;-83
2022/01/10 14:37:07;;;;;;;33.88;15.30;;;;;;;;;;4978944;28;20026;-83
2022/01/10 14:39:33;;;;;;;26.30;13.45;;;;;;;;;;4977908;28;20033;-83
2022/01/10 14:41:59;;;;;;;27.70;13.00;;;;;;;;;;4981270;28;20018;-81
2022/01/10 14:44:25;;;;;;;49.00;13.68;;;;;;;;;;4983955;28;20031;-82
2022/01/10 14:46:51;;;;;;;29.08;13.77;;;;;;;;;;4975238;28;20039;-82